Time;durP1;ratioP1;P1;durP2;ratioP2;P2;SDS_P1;SDS_P2;PMS_P1;PMS_P2;Temp;Humidity;BMP_temperature;BMP_pressure;BME280_temperature;BME280_humidity;BME280_pressure;Samples;Min_cycle;Max_cycle;Signal;HPM_P1;HPM_P2
2021/04/27 00:00:36;;;;;;;3.45;1.40;;;2.50;79.70;;;;;;5058946;28;20021;-71
2021/04/27 00:03:06;;;;;;;3.33;1.45;;;2.60;79.60;;;;;;5059063;28;20083;-70
2021/04/27 00:05:33;;;;;;;3.03;1.10;;;2.60;79.70;;;;;;5058878;28;20049;-71
2021/04/27 00:08:02;;;;;;;2.47;1.08;;;2.60;79.50;;;;;;5060253;28;20025;-71
2021/04/27 00:10:30;;;;;;;4.13;1.35;;;2.60;79.60;;;;;;5059698;28;20021;-70
2021/04/27 00:13:00;;;;;;;3.70;1.30;;;2.60;79.30;;;;;;5060322;28;20029;-71
2021/04/27 00:15:29;;;;;;;4.93;1.88;;;2.60;79.20;;;;;;5059900;28;20321;-71
2021/04/27 00:17:57;;;;;;;4.47;1.20;;;2.60;79.20;;;;;;5059603;28;20072;-71
2021/04/27 00:20:26;;;;;;;4.82;1.50;;;2.60;79.30;;;;;;5041149;28;20036;-70
2021/04/27 00:22:55;;;;;;;3.20;1.20;;;2.60;79.20;;;;;;5059659;28;20021;-71
2021/04/27 00:25:23;;;;;;;4.25;1.50;;;2.60;78.90;;;;;;5060193;28;20088;-70
2021/04/27 00:27:54;;;;;;;6.55;1.38;;;2.60;78.40;;;;;;5040817;28;20029;-71
2021/04/27 00:30:24;;;;;;;2.30;1.02;;;2.60;78.30;;;;;;5058379;28;20023;-71
2021/04/27 00:32:52;;;;;;;3.08;1.45;;;2.70;78.40;;;;;;5059091;28;20021;-71
2021/04/27 00:35:19;;;;;;;2.92;1.10;;;2.70;78.30;;;;;;5057777;28;20029;-71
2021/04/27 00:37:48;;;;;;;1.80;1.00;;;2.70;77.60;;;;;;5058631;28;20028;-71
2021/04/27 00:40:18;;;;;;;2.97;0.88;;;2.70;76.70;;;;;;5058266;28;20064;-71
2021/04/27 00:42:47;;;;;;;6.63;1.13;;;2.70;75.80;;;;;;5059027;28;20032;-71
2021/04/27 00:45:18;;;;;;;1.77;0.70;;;2.80;74.00;;;;;;5058126;28;20428;-71
2021/04/27 00:47:47;;;;;;;1.35;0.68;;;2.90;73.20;;;;;;5058756;28;20036;-72
2021/04/27 00:50:19;;;;;;;1.70;0.70;;;3.00;72.50;;;;;;5058954;28;20032;-70
2021/04/27 00:52:48;;;;;;;3.17;0.95;;;3.10;72.00;;;;;;5058999;28;20013;-71
2021/04/27 00:55:16;;;;;;;2.78;0.80;;;3.10;71.70;;;;;;5058928;28;20025;-71
2021/04/27 00:57:43;;;;;;;1.92;0.85;;;3.20;71.20;;;;;;5059204;28;20024;-71
2021/04/27 01:00:22;;;;;;;0.93;0.45;;;3.20;70.70;;;;;;5058748;28;20017;-71
2021/04/27 01:02:50;;;;;;;4.50;0.82;;;3.30;69.50;;;;;;5059290;28;20032;-70
2021/04/27 01:05:23;;;;;;;5.40;0.65;;;3.40;69.10;;;;;;5040922;28;20025;-71
2021/04/27 01:08:05;;;;;;;2.65;0.80;;;3.40;68.80;;;;;;5058396;28;20104;-71
2021/04/27 01:10:58;;;;;;;1.17;0.63;;;3.50;68.40;;;;;;5057703;28;20052;-71
2021/04/27 01:14:01;;;;;;;1.30;0.70;;;3.50;68.10;;;;;;5058266;28;20033;-71
2021/04/27 01:16:31;;;;;;;2.70;0.77;;;3.50;67.80;;;;;;5044697;28;20036;-71
2021/04/27 01:18:59;;;;;;;1.25;0.60;;;3.60;67.30;;;;;;5057872;28;20044;-71
2021/04/27 01:21:28;;;;;;;2.33;0.70;;;3.60;67.10;;;;;;5039709;28;20029;-71
2021/04/27 01:24:11;;;;;;;1.73;0.60;;;3.60;67.00;;;;;;5058437;28;20025;-71
2021/04/27 01:26:46;;;;;;;3.08;1.35;;;3.60;67.00;;;;;;5057328;28;20024;-71
2021/04/27 01:29:17;;;;;;;5.60;1.00;;;3.60;66.80;;;;;;5058155;28;20025;-71
2021/04/27 01:31:46;;;;;;;4.70;1.80;;;3.60;67.00;;;;;;5058269;28;20495;-71
2021/04/27 01:34:22;;;;;;;2.63;1.08;;;3.60;67.40;;;;;;5058557;28;20124;-71
2021/04/27 01:36:51;;;;;;;1.95;1.15;;;3.50;68.00;;;;;;5039252;28;20427;-71
2021/04/27 01:39:22;;;;;;;3.38;1.08;;;3.50;68.20;;;;;;5058570;28;20024;-71
2021/04/27 01:41:51;;;;;;;2.90;0.90;;;3.40;68.50;;;;;;5040262;28;20028;-71
2021/04/27 01:44:20;;;;;;;3.60;1.25;;;3.30;69.30;;;;;;5040444;28;20092;-71
2021/04/27 01:46:47;;;;;;;1.67;0.70;;;3.30;69.80;;;;;;5057234;28;20122;-71
2021/04/27 01:49:18;;;;;;;1.65;0.73;;;3.20;70.10;;;;;;5057927;28;20025;-71
2021/04/27 01:51:47;;;;;;;5.03;1.25;;;3.10;70.50;;;;;;5057070;28;20057;-71
2021/04/27 01:54:15;;;;;;;2.75;1.10;;;3.00;70.90;;;;;;5056977;28;20021;-71
2021/04/27 01:56:43;;;;;;;3.92;1.13;;;2.90;71.10;;;;;;5057421;28;20024;-71
2021/04/27 01:59:11;;;;;;;2.20;1.00;;;2.90;71.60;;;;;;5056839;28;20028;-71
2021/04/27 02:01:38;;;;;;;1.52;0.60;;;2.80;72.00;;;;;;5056813;28;20035;-71
2021/04/27 02:04:06;;;;;;;3.05;1.35;;;2.70;72.60;;;;;;5057440;28;20097;-71
2021/04/27 02:06:33;;;;;;;2.13;0.80;;;2.60;72.90;;;;;;5038943;28;20036;-71
2021/04/27 02:09:09;;;;;;;3.35;1.00;;;2.50;75.20;;;;;;5056720;28;20063;-71
2021/04/27 02:11:41;;;;;;;8.30;0.97;;;2.40;75.60;;;;;;5057051;28;20028;-71
2021/04/27 02:14:10;;;;;;;3.35;1.00;;;2.10;76.30;;;;;;5057570;28;20707;-70
2021/04/27 02:16:46;;;;;;;3.40;0.93;;;1.90;77.10;;;;;;5057425;28;20025;-70
2021/04/27 02:19:14;;;;;;;;;;;1.80;78.60;;;;;;5057848;28;20048;-71
2021/04/27 02:21:42;;;;;;;2.20;0.77;;;1.60;79.70;;;;;;5057689;28;19905;-70
2021/04/27 02:24:10;;;;;;;2.05;0.90;;;1.40;80.30;;;;;;5057841;28;20025;-70
2021/04/27 02:26:38;;;;;;;3.80;1.15;;;1.30;81.60;;;;;;5040491;28;20025;-70
2021/04/27 02:29:06;;;;;;;2.38;1.02;;;1.10;82.50;;;;;;5058001;28;20317;-70
2021/04/27 02:31:34;;;;;;;2.92;0.93;;;1.00;83.30;;;;;;5056596;28;20049;-71
2021/04/27 02:34:06;;;;;;;3.58;1.17;;;0.80;84.00;;;;;;5056860;28;20028;-71
2021/04/27 02:36:38;;;;;;;1.50;0.80;;;0.70;84.70;;;;;;5056260;28;20048;-71
2021/04/27 02:39:10;;;;;;;3.97;0.93;;;0.60;85.20;;;;;;5056475;28;20025;-71
2021/04/27 02:41:39;;;;;;;4.45;0.80;;;0.60;86.20;;;;;;5056279;28;20025;-70
2021/04/27 02:44:11;;;;;;;5.53;1.17;;;0.40;86.90;;;;;;5056462;28;20025;-71
2021/04/27 02:46:40;;;;;;;1.42;0.85;;;0.40;87.40;;;;;;5056241;28;20021;-71
2021/04/27 02:49:10;;;;;;;4.53;2.08;;;0.30;88.00;;;;;;5056379;28;20035;-71
2021/04/27 02:51:38;;;;;;;2.78;1.13;;;0.20;88.90;;;;;;5056678;28;20025;-70
2021/04/27 02:54:06;;;;;;;2.65;0.95;;;0.20;89.60;;;;;;5057416;28;20107;-71
2021/04/27 02:56:34;;;;;;;3.60;0.60;;;0.10;89.90;;;;;;5057141;28;20075;-71
2021/04/27 02:59:04;;;;;;;7.53;1.58;;;0.10;90.10;;;;;;5059298;28;20369;-71
2021/04/27 03:01:32;;;;;;;2.15;0.98;;;0.00;90.20;;;;;;5061014;28;20025;-71
2021/04/27 03:03:59;;;;;;;3.30;0.70;;;0.00;90.70;;;;;;5061016;28;20039;-71
2021/04/27 03:06:27;;;;;;;5.18;0.95;;;0.00;91.40;;;;;;5061153;28;20021;-71
2021/04/27 03:08:55;;;;;;;1.83;0.82;;;-0.10;92.00;;;;;;5043268;28;20029;-71
2021/04/27 03:11:22;;;;;;;1.13;0.68;;;-0.20;92.50;;;;;;5061552;28;20056;-71
2021/04/27 03:13:54;;;;;;;2.60;1.20;;;-0.30;93.00;;;;;;5060519;28;20079;-70
2021/04/27 03:16:23;;;;;;;7.50;1.13;;;-0.40;93.20;;;;;;5042205;28;20302;-71
2021/04/27 03:18:50;;;;;;;6.47;1.00;;;-0.40;93.60;;;;;;5058799;28;20044;-71
2021/04/27 03:21:18;;;;;;;2.45;1.00;;;-0.40;93.70;;;;;;5060446;28;20052;-71
2021/04/27 03:23:46;;;;;;;3.65;1.00;;;-0.50;93.80;;;;;;5042133;28;20040;-71
2021/04/27 03:26:14;;;;;;;3.53;1.15;;;-0.50;94.20;;;;;;5060287;28;20347;-71
2021/04/27 03:28:43;;;;;;;3.10;0.98;;;-0.50;94.40;;;;;;5041898;28;20036;-71
2021/04/27 03:31:11;;;;;;;2.80;1.20;;;-0.50;94.50;;;;;;5042071;28;20430;-71
2021/04/27 03:33:39;;;;;;;2.72;1.10;;;-0.50;94.70;;;;;;5060009;28;20052;-71
2021/04/27 03:36:06;;;;;;;1.77;0.93;;;-0.50;95.00;;;;;;5042402;28;20029;-71
2021/04/27 03:38:34;;;;;;;2.10;0.85;;;-0.50;95.50;;;;;;5060930;28;20024;-71
2021/04/27 03:41:03;;;;;;;1.63;0.75;;;-0.50;95.70;;;;;;5060998;28;20098;-71
2021/04/27 03:43:30;;;;;;;2.25;1.15;;;-0.60;96.10;;;;;;5042620;28;20025;-70
2021/04/27 03:45:58;;;;;;;1.80;0.82;;;-0.60;96.40;;;;;;5060336;28;20124;-71
2021/04/27 03:48:25;;;;;;;2.38;0.95;;;-0.60;96.60;;;;;;5060206;28;20368;-71
2021/04/27 03:50:54;;;;;;;1.42;0.68;;;-0.60;97.10;;;;;;5060297;28;20032;-71
2021/04/27 03:53:21;;;;;;;2.35;0.68;;;-0.70;97.00;;;;;;5042267;28;20082;-70
2021/04/27 03:55:49;;;;;;;3.90;0.73;;;-0.70;97.30;;;;;;5060022;28;20013;-71
2021/04/27 03:58:16;;;;;;;3.05;1.00;;;-0.70;98.00;;;;;;5041454;28;20508;-71
2021/04/27 04:00:44;;;;;;;3.17;0.88;;;-0.80;98.20;;;;;;5041295;28;20024;-70
2021/04/27 04:03:11;;;;;;;4.75;1.20;;;-0.90;98.50;;;;;;5059544;28;20421;-71
2021/04/27 04:05:39;;;;;;;3.30;0.70;;;-0.90;99.00;;;;;;5058862;28;20111;-70
2021/04/27 04:08:06;;;;;;;19.73;1.20;;;-1.00;99.30;;;;;;5059449;28;20021;-71
2021/04/27 04:10:34;;;;;;;2.15;0.75;;;-1.00;99.90;;;;;;5040349;28;20025;-71
2021/04/27 04:13:02;;;;;;;3.97;1.30;;;-1.10;99.90;;;;;;5059064;28;20021;-71
2021/04/27 04:15:29;;;;;;;3.05;1.20;;;-1.00;99.90;;;;;;5059110;28;20025;-71
2021/04/27 04:17:57;;;;;;;2.25;1.20;;;-1.00;99.90;;;;;;5060091;28;20020;-70
2021/04/27 04:20:26;;;;;;;5.05;1.52;;;-1.00;99.90;;;;;;5059482;28;20409;-71
2021/04/27 04:22:55;;;;;;;1.67;0.70;;;-1.00;99.90;;;;;;5059839;28;20036;-70
2021/04/27 04:25:23;;;;;;;2.15;1.08;;;-0.90;99.90;;;;;;5059664;28;20125;-70
2021/04/27 04:27:51;;;;;;;1.25;0.68;;;-0.90;99.90;;;;;;5059937;28;20310;-71
2021/04/27 04:30:23;;;;;;;2.53;1.05;;;-0.90;99.90;;;;;;5059425;28;20021;-70
2021/04/27 04:32:52;;;;;;;2.33;1.20;;;-0.90;99.90;;;;;;5059284;28;20024;-70
2021/04/27 04:35:23;;;;;;;5.82;1.10;;;-0.90;99.90;;;;;;5058995;28;20025;-71
2021/04/27 04:37:51;;;;;;;2.53;1.10;;;-0.90;99.90;;;;;;5058260;28;20031;-71
2021/04/27 04:40:19;;;;;;;7.70;4.18;;;-0.90;99.90;;;;;;5058291;28;20025;-71
2021/04/27 04:42:47;;;;;;;10.00;3.67;;;-0.90;99.90;;;;;;5040485;28;20021;-71
2021/04/27 04:45:17;;;;;;;4.72;2.17;;;-0.80;99.90;;;;;;5058939;28;20066;-71
2021/04/27 04:47:47;;;;;;;3.17;1.42;;;-0.80;99.90;;;;;;5040438;28;20025;-70
2021/04/27 04:50:16;;;;;;;2.42;1.02;;;-0.70;99.90;;;;;;5058629;28;20032;-73
2021/04/27 04:52:44;;;;;;;2.58;0.95;;;-0.70;99.90;;;;;;5058097;28;20017;-73
2021/04/27 04:55:13;;;;;;;5.65;1.20;;;-0.70;99.90;;;;;;5058260;28;20036;-73
2021/04/27 04:57:41;;;;;;;2.40;1.00;;;-0.70;99.90;;;;;;5058714;28;20089;-74
2021/04/27 05:00:15;;;;;;;1.75;0.70;;;-0.70;99.90;;;;;;5041163;28;20035;-73
2021/04/27 05:02:43;;;;;;;4.05;0.88;;;-0.60;99.90;;;;;;5059140;28;20028;-73
2021/04/27 05:05:11;;;;;;;7.65;1.45;;;-0.60;99.90;;;;;;5059189;28;20074;-73
2021/04/27 05:07:43;;;;;;;5.80;1.20;;;-0.60;99.90;;;;;;5059268;28;20029;-73
2021/04/27 05:10:14;;;;;;;3.80;1.25;;;-0.60;99.90;;;;;;5059199;28;20025;-73
2021/04/27 05:12:42;;;;;;;4.00;0.82;;;-0.50;99.90;;;;;;5058935;28;20104;-73
2021/04/27 05:15:11;;;;;;;2.30;1.00;;;-0.40;99.90;;;;;;5059064;28;20017;-73
2021/04/27 05:17:38;;;;;;;2.53;1.10;;;-0.40;99.90;;;;;;5040902;28;20021;-73
2021/04/27 05:20:06;;;;;;;4.15;0.88;;;-0.30;99.90;;;;;;5057515;28;20056;-73
2021/04/27 05:22:33;;;;;;;3.85;1.27;;;-0.20;99.90;;;;;;5057434;28;20349;-73
2021/04/27 05:25:01;;;;;;;3.78;0.93;;;-0.20;99.90;;;;;;5057930;28;20025;-73
2021/04/27 05:27:30;;;;;;;3.55;1.40;;;0.00;99.90;;;;;;5039700;28;20417;-73
2021/04/27 05:29:58;;;;;;;4.50;1.75;;;0.10;99.90;;;;;;5058108;28;20079;-71
2021/04/27 05:32:26;;;;;;;2.00;1.10;;;0.20;99.90;;;;;;5057842;28;20035;-71
2021/04/27 05:34:54;;;;;;;6.03;1.35;;;0.40;99.90;;;;;;5057220;28;20029;-71
2021/04/27 05:37:22;;;;;;;3.35;1.17;;;0.40;99.90;;;;;;5057095;28;20024;-71
2021/04/27 05:39:49;;;;;;;3.80;1.17;;;0.60;99.90;;;;;;5058744;28;20032;-71
2021/04/27 05:42:17;;;;;;;3.15;1.55;;;0.70;99.90;;;;;;5058520;28;20279;-71
2021/04/27 05:44:45;;;;;;;5.25;1.40;;;0.80;99.90;;;;;;5057982;28;20074;-71
2021/04/27 05:47:12;;;;;;;3.53;1.30;;;1.00;99.90;;;;;;5058459;28;20123;-71
2021/04/27 05:49:40;;;;;;;4.15;1.60;;;1.10;99.90;;;;;;5058379;28;20021;-71
2021/04/27 05:52:08;;;;;;;3.17;1.38;;;1.30;99.90;;;;;;5058128;28;20036;-72
2021/04/27 05:54:37;;;;;;;6.13;1.25;;;1.50;99.70;;;;;;5039959;28;20124;-71
2021/04/27 05:57:05;;;;;;;2.83;1.33;;;1.60;99.00;;;;;;5057664;28;20106;-72
2021/04/27 05:59:33;;;;;;;3.45;1.30;;;1.80;98.30;;;;;;5056822;28;20017;-69
2021/04/27 06:02:01;;;;;;;3.33;1.00;;;1.90;97.60;;;;;;5057492;28;20441;-70
2021/04/27 06:04:29;;;;;;;3.80;1.60;;;2.00;97.00;;;;;;5056756;28;20459;-70
2021/04/27 06:06:56;;;;;;;3.05;1.45;;;2.20;96.60;;;;;;5057180;28;20082;-71
2021/04/27 06:09:24;;;;;;;2.08;1.00;;;2.30;95.70;;;;;;5057245;28;20429;-70
2021/04/27 06:11:54;;;;;;;5.25;2.20;;;2.50;94.90;;;;;;5038817;28;20025;-71
2021/04/27 06:14:23;;;;;;;11.02;1.30;;;2.60;94.30;;;;;;5057230;28;20021;-71
2021/04/27 06:16:51;;;;;;;1.77;1.10;;;2.80;93.60;;;;;;5039558;28;20485;-71
2021/04/27 06:19:19;;;;;;;3.20;1.15;;;3.00;91.70;;;;;;5056370;28;20340;-71
2021/04/27 06:21:47;;;;;;;2.22;0.90;;;3.20;90.90;;;;;;5038699;28;20056;-71
2021/04/27 06:24:15;;;;;;;3.22;1.15;;;3.40;89.40;;;;;;5056729;28;20055;-71
2021/04/27 06:26:42;;;;;;;4.53;1.45;;;3.60;86.90;;;;;;5039537;28;20028;-71
2021/04/27 06:29:10;;;;;;;5.30;1.10;;;3.80;86.00;;;;;;5039666;28;20035;-71
2021/04/27 06:31:38;;;;;;;3.25;0.93;;;3.90;85.10;;;;;;5039638;28;20417;-71
2021/04/27 06:34:06;;;;;;;4.50;1.17;;;4.10;83.60;;;;;;5039968;28;20085;-71
2021/04/27 06:36:34;;;;;;;3.15;1.15;;;4.30;81.40;;;;;;5039501;28;20055;-71
2021/04/27 06:39:03;;;;;;;3.20;0.95;;;4.40;81.20;;;;;;5057761;28;20021;-71
2021/04/27 06:41:32;;;;;;;1.33;0.68;;;4.60;77.60;;;;;;5039616;28;20033;-71
2021/04/27 06:44:01;;;;;;;3.50;0.80;;;4.70;73.70;;;;;;5057434;28;20074;-71
2021/04/27 06:46:30;;;;;;;1.95;0.90;;;4.90;75.50;;;;;;5056838;28;20083;-71
2021/04/27 06:48:58;;;;;;;2.80;0.63;;;5.00;75.10;;;;;;5056399;28;20319;-71
2021/04/27 06:51:26;;;;;;;3.95;0.73;;;5.10;73.30;;;;;;5056380;28;20067;-71
2021/04/27 06:53:53;;;;;;;2.10;1.10;;;5.30;69.40;;;;;;5056606;28;20091;-71
2021/04/27 06:56:21;;;;;;;3.58;1.38;;;5.30;68.90;;;;;;5056448;28;20013;-71
2021/04/27 06:58:49;;;;;;;4.75;1.00;;;5.40;71.50;;;;;;5038444;28;20021;-71
2021/04/27 07:01:17;;;;;;;1.45;0.90;;;5.50;71.10;;;;;;5056829;28;20013;-71
2021/04/27 07:03:48;;;;;;;2.28;0.95;;;5.50;71.20;;;;;;5038368;28;20029;-71
2021/04/27 07:06:16;;;;;;;5.32;1.58;;;5.60;71.80;;;;;;5056310;28;20029;-71
2021/04/27 07:08:44;;;;;;;3.55;1.10;;;5.60;72.40;;;;;;5039352;28;20056;-71
2021/04/27 07:11:12;;;;;;;6.63;1.25;;;5.70;70.40;;;;;;5057341;28;20055;-71
2021/04/27 07:13:40;;;;;;;2.42;1.25;;;5.80;67.00;;;;;;5039132;28;20511;-71
2021/04/27 07:16:08;;;;;;;3.17;0.82;;;5.80;67.00;;;;;;5057429;28;20017;-71
2021/04/27 07:18:36;;;;;;;3.67;0.60;;;6.00;68.70;;;;;;5056764;28;20033;-71
2021/04/27 07:21:04;;;;;;;2.70;1.00;;;6.00;68.20;;;;;;5057593;28;20040;-71
2021/04/27 07:23:32;;;;;;;5.00;1.00;;;6.10;68.80;;;;;;5057150;28;20021;-71
2021/04/27 07:25:59;;;;;;;2.50;1.00;;;6.10;69.50;;;;;;5057031;28;20021;-71
2021/04/27 07:28:27;;;;;;;1.75;0.70;;;6.20;68.60;;;;;;5055916;28;20025;-71
2021/04/27 07:30:55;;;;;;;1.40;0.65;;;6.30;65.40;;;;;;5056021;28;20037;-71
2021/04/27 07:33:23;;;;;;;2.00;0.90;;;6.40;63.90;;;;;;5056082;28;20032;-71
2021/04/27 07:35:52;;;;;;;1.77;0.75;;;6.40;65.60;;;;;;5038180;28;20029;-71
2021/04/27 07:38:20;;;;;;;6.50;1.20;;;6.50;65.40;;;;;;5056097;28;20312;-71
2021/04/27 07:40:47;;;;;;;7.72;1.55;;;6.50;65.40;;;;;;5056011;28;20024;-71
2021/04/27 07:43:14;;;;;;;1.50;0.60;;;6.60;63.10;;;;;;5038145;28;20029;-71
2021/04/27 07:45:42;;;;;;;1.85;0.47;;;6.70;59.00;;;;;;5057020;28;20021;-71
2021/04/27 07:48:10;;;;;;;2.15;0.80;;;6.70;56.80;;;;;;5060310;28;20048;-71
2021/04/27 07:50:37;;;;;;;1.30;0.80;;;6.80;57.00;;;;;;5042513;28;20100;-71
2021/04/27 07:53:06;;;;;;;2.97;0.60;;;7.00;56.20;;;;;;5060720;28;20417;-71
2021/04/27 07:55:34;;;;;;;2.25;0.70;;;7.00;55.20;;;;;;5060917;28;20305;-71
2021/04/27 07:58:02;;;;;;;3.97;0.57;;;7.10;54.00;;;;;;5060174;28;20025;-71
2021/04/27 08:00:31;;;;;;;2.35;0.60;;;7.20;54.20;;;;;;5060110;28;20024;-71
2021/04/27 08:02:59;;;;;;;2.00;0.85;;;7.30;54.20;;;;;;5060341;28;20021;-71
2021/04/27 08:05:28;;;;;;;3.35;0.98;;;7.40;52.70;;;;;;5060394;28;20321;-71
2021/04/27 08:07:56;;;;;;;3.22;0.52;;;7.50;52.80;;;;;;5059250;28;20023;-71
2021/04/27 08:10:23;;;;;;;3.97;0.77;;;7.50;52.00;;;;;;5059067;28;20444;-71
2021/04/27 08:12:52;;;;;;;3.67;0.80;;;7.60;52.60;;;;;;5170601;22;20053;-71
2021/04/27 08:15:27;;;;;;;10.50;1.20;;;7.70;51.50;;;;;;5059953;28;20421;-71
2021/04/27 08:17:59;;;;;;;1.65;0.63;;;7.70;52.00;;;;;;5059713;28;20394;-71
2021/04/27 08:20:28;;;;;;;2.08;0.82;;;7.70;51.50;;;;;;5060004;28;20025;-71
2021/04/27 08:22:57;;;;;;;2.33;0.60;;;7.90;49.70;;;;;;5058978;28;20021;-71
2021/04/27 08:25:25;;;;;;;3.55;0.60;;;7.90;49.90;;;;;;5059323;28;20051;-71
2021/04/27 08:27:53;;;;;;;2.70;1.23;;;8.00;50.70;;;;;;5040892;28;20071;-71
2021/04/27 08:30:22;;;;;;;2.33;0.98;;;8.00;50.20;;;;;;5059280;28;20301;-71
2021/04/27 08:32:52;;;;;;;3.03;1.00;;;8.10;49.00;;;;;;5058381;28;20033;-70
2021/04/27 08:35:21;;;;;;;2.72;0.75;;;8.20;48.10;;;;;;5059026;28;20433;-70
2021/04/27 08:37:48;;;;;;;2.55;1.02;;;8.30;49.30;;;;;;5040651;28;20021;-71
2021/04/27 08:40:18;;;;;;;3.95;0.77;;;8.40;49.60;;;;;;5040942;28;20075;-68
2021/04/27 08:42:48;;;;;;;2.85;1.10;;;8.40;48.40;;;;;;5058221;28;20059;-69
2021/04/27 08:45:17;;;;;;;7.05;0.70;;;8.50;48.20;;;;;;5059423;28;20414;-69
2021/04/27 08:47:45;;;;;;;1.40;0.55;;;8.60;48.30;;;;;;5059081;28;20454;-69
2021/04/27 08:50:16;;;;;;;5.18;1.05;;;8.60;48.40;;;;;;5059309;28;20415;-69
2021/04/27 08:52:45;;;;;;;3.10;1.00;;;8.70;48.80;;;;;;5058879;28;20029;-69
2021/04/27 08:55:17;;;;;;;1.67;1.13;;;8.70;48.70;;;;;;5059768;28;20032;-69
2021/04/27 08:57:45;;;;;;;2.88;0.70;;;8.80;47.90;;;;;;5058496;28;20044;-69
2021/04/27 09:00:18;;;;;;;2.58;1.00;;;8.80;46.60;;;;;;5058904;28;20067;-70
2021/04/27 09:02:54;;;;;;;3.10;1.48;;;8.80;47.30;;;;;;5058849;28;20021;-70
2021/04/27 09:05:27;;;;;;;6.18;1.02;;;8.70;46.80;;;;;;5040147;28;20025;-71
2021/04/27 09:07:56;;;;;;;2.10;0.77;;;8.70;46.60;;;;;;5040042;28;20021;-71
2021/04/27 09:10:33;;;;;;;2.40;1.00;;;8.70;45.40;;;;;;5058258;28;20072;-70
2021/04/27 09:13:09;;;;;;;3.55;0.98;;;8.80;45.50;;;;;;5057332;28;20041;-70
2021/04/27 09:15:48;;;;;;;4.90;1.27;;;8.80;46.80;;;;;;5039797;28;20021;-70
2021/04/27 09:18:32;;;;;;;2.42;0.85;;;8.90;47.90;;;;;;5057793;28;20477;-68
2021/04/27 09:21:07;;;;;;;2.42;0.73;;;8.90;47.80;;;;;;5058022;28;20063;-69
2021/04/27 09:23:36;;;;;;;9.07;1.02;;;8.90;47.40;;;;;;5039806;28;20029;-70
2021/04/27 09:26:23;;;;;;;2.35;0.80;;;8.90;46.90;;;;;;5057947;28;20033;-71
2021/04/27 09:28:53;;;;;;;2.20;0.77;;;9.00;47.70;;;;;;5058791;28;20051;-70
2021/04/27 09:31:29;;;;;;;3.67;0.98;;;9.10;47.10;;;;;;5058089;28;20127;-69
2021/04/27 09:34:16;;;;;;;1.80;0.70;;;9.20;47.70;;;;;;5058220;28;20029;-69
2021/04/27 09:36:44;;;;;;;3.38;1.00;;;9.30;47.50;;;;;;5058851;28;20575;-69
2021/04/27 09:39:12;;;;;;;4.25;0.95;;;9.30;46.70;;;;;;5058639;28;20360;-69
2021/04/27 09:41:40;;;;;;;2.35;0.90;;;9.40;47.40;;;;;;5058352;28;20017;-69
2021/04/27 09:44:32;;;;;;;5.18;1.10;;;9.50;48.60;;;;;;5057903;28;20060;-70
2021/04/27 09:47:13;;;;;;;5.53;0.85;;;9.60;47.20;;;;;;5057239;28;20048;-70
2021/04/27 09:49:41;;;;;;;4.35;1.02;;;9.60;46.70;;;;;;5057744;28;20317;-69
2021/04/27 09:52:11;;;;;;;2.38;0.85;;;9.70;47.10;;;;;;5057228;28;20021;-70
2021/04/27 09:55:08;;;;;;;2.05;1.08;;;9.80;46.50;;;;;;5056769;28;20017;-70
2021/04/27 09:57:49;;;;;;;2.15;0.90;;;9.90;47.20;;;;;;5057165;28;20096;-69
2021/04/27 10:00:39;;;;;;;5.55;1.10;;;9.90;46.80;;;;;;5057331;28;20025;-70
2021/04/27 10:03:13;;;;;;;14.93;7.53;;;10.00;46.90;;;;;;5057015;28;20102;-69
2021/04/27 10:05:48;;;;;;;3.58;1.38;;;10.00;47.90;;;;;;5056743;28;20028;-69
2021/04/27 10:08:16;;;;;;;3.40;1.40;;;10.10;46.40;;;;;;5057332;28;20017;-71
2021/04/27 10:10:44;;;;;;;4.47;1.65;;;10.10;47.00;;;;;;5039913;28;20021;-69
2021/04/27 10:13:12;;;;;;;4.57;0.95;;;10.20;48.40;;;;;;5057175;28;20391;-71
2021/04/27 10:15:40;;;;;;;6.68;1.08;;;10.30;47.30;;;;;;5057631;28;20023;-69
2021/04/27 10:18:10;;;;;;;1.55;0.88;;;10.30;47.40;;;;;;5057749;28;20059;-69
2021/04/27 10:20:39;;;;;;;3.50;1.10;;;10.40;47.60;;;;;;5057280;28;20036;-70
2021/04/27 10:23:11;;;;;;;2.72;1.20;;;10.40;47.00;;;;;;5057348;28;20029;-69
2021/04/27 10:25:39;;;;;;;4.43;1.60;;;10.40;47.50;;;;;;5057127;28;20032;-69
2021/04/27 10:28:12;;;;;;;4.13;1.35;;;10.40;47.30;;;;;;5056580;28;20051;-71
2021/04/27 10:30:42;;;;;;;3.95;1.40;;;10.50;48.50;;;;;;5056329;28;20489;-72
2021/04/27 10:33:12;;;;;;;4.07;1.15;;;10.50;47.10;;;;;;5056305;28;20470;-68
2021/04/27 10:35:42;;;;;;;2.45;0.88;;;10.60;46.70;;;;;;5056582;28;20052;-67
2021/04/27 10:38:12;;;;;;;3.92;1.55;;;10.60;46.70;;;;;;5056390;28;20028;-67
2021/04/27 10:40:48;;;;;;;4.45;1.10;;;10.60;46.80;;;;;;5056433;28;20021;-68
2021/04/27 10:43:25;;;;;;;6.30;1.65;;;10.70;46.70;;;;;;5056901;28;20025;-71
2021/04/27 10:46:10;;;;;;;2.67;1.20;;;10.70;46.40;;;;;;5057030;28;20017;-70
2021/04/27 10:48:46;;;;;;;4.93;1.05;;;10.80;45.50;;;;;;5057685;28;20321;-71
2021/04/27 10:51:23;;;;;;;8.55;1.33;;;10.80;45.70;;;;;;5057487;28;20029;-70
2021/04/27 10:54:19;;;;;;;3.25;1.23;;;10.90;46.70;;;;;;5057697;28;20048;-71
2021/04/27 10:57:06;;;;;;;3.10;1.20;;;11.00;46.70;;;;;;5057328;28;20027;-68
2021/04/27 10:59:52;;;;;;;3.58;1.20;;;11.10;45.30;;;;;;5057669;28;20402;-70
2021/04/27 11:02:31;;;;;;;5.75;1.10;;;11.20;46.50;;;;;;5057171;28;20029;-70
2021/04/27 11:05:23;;;;;;;3.42;1.10;;;11.30;45.40;;;;;;5057533;28;20047;-71
2021/04/27 11:08:12;;;;;;;4.13;1.25;;;11.40;45.40;;;;;;5056127;28;20036;-72
2021/04/27 11:10:44;;;;;;;3.70;1.05;;;11.50;46.80;;;;;;5056172;28;20029;-69
2021/04/27 11:13:13;;;;;;;4.82;1.15;;;11.50;44.80;;;;;;5034371;28;20049;-70
2021/04/27 11:15:46;;;;;;;2.30;0.90;;;11.50;45.10;;;;;;5035513;28;20084;-71
2021/04/27 11:18:19;;;;;;;5.78;1.42;;;11.60;44.60;;;;;;5035993;28;20313;-70
2021/04/27 11:20:53;;;;;;;3.17;1.23;;;11.50;44.30;;;;;;5039607;28;20018;-70
2021/04/27 11:23:34;;;;;;;3.53;1.30;;;11.70;44.50;;;;;;5040045;28;20477;-70
2021/04/27 11:26:23;;;;;;;3.42;1.60;;;11.80;43.90;;;;;;5040657;28;20026;-70
2021/04/27 11:29:06;;;;;;;2.70;0.98;;;11.90;43.80;;;;;;5041058;28;20096;-70
2021/04/27 11:31:53;;;;;;;1.80;0.80;;;11.90;44.30;;;;;;5040823;28;20480;-70
2021/04/27 11:34:21;;;;;;;;;;;12.00;43.50;;;;;;5041298;28;20040;-69
2021/04/27 11:36:49;;;;;;;5.57;1.23;;;12.00;43.70;;;;;;5041051;28;19927;-70
2021/04/27 11:39:22;;;;;;;3.08;1.00;;;12.10;43.40;;;;;;5040632;28;20021;-69
2021/04/27 11:41:55;;;;;;;1.88;1.17;;;12.20;42.90;;;;;;5040900;28;20072;-69
2021/04/27 11:44:32;;;;;;;5.70;1.20;;;12.30;42.50;;;;;;5040530;28;20025;-69
2021/04/27 11:47:17;;;;;;;3.72;1.58;;;12.40;42.90;;;;;;5040667;28;20030;-69
2021/04/27 11:49:59;;;;;;;4.10;1.20;;;12.50;42.90;;;;;;5039492;28;20113;-69
2021/04/27 11:52:46;;;;;;;2.92;1.25;;;12.60;43.90;;;;;;5039982;28;20024;-69
2021/04/27 11:55:39;;;;;;;3.58;1.17;;;12.70;43.20;;;;;;5039766;28;20033;-70
2021/04/27 11:58:19;;;;;;;3.58;1.27;;;12.80;43.80;;;;;;5039641;28;20025;-72
2021/04/27 12:00:49;;;;;;;2.47;1.10;;;12.90;41.80;;;;;;5038213;28;20022;-71
2021/04/27 12:03:24;;;;;;;3.25;1.02;;;12.90;42.10;;;;;;5038902;28;20037;-71
2021/04/27 12:05:58;;;;;;;3.47;1.00;;;12.90;43.30;;;;;;5038870;28;20024;-70
2021/04/27 12:08:28;;;;;;;3.40;1.00;;;13.00;42.30;;;;;;5039890;28;20099;-70
2021/04/27 12:11:34;;;;;;;3.78;1.65;;;13.10;42.10;;;;;;5038910;28;20067;-69
2021/04/27 12:14:08;;;;;;;3.65;1.38;;;13.10;42.00;;;;;;5051463;28;20052;-69
2021/04/27 12:16:39;;;;;;;3.17;1.55;;;13.30;41.40;;;;;;5060030;28;20017;-68
2021/04/27 12:19:07;;;;;;;4.40;1.35;;;13.40;42.30;;;;;;5060090;28;20309;-69
2021/04/27 12:21:44;;;;;;;4.03;1.23;;;13.40;41.70;;;;;;5060008;28;20025;-69
2021/04/27 12:24:18;;;;;;;;;;;13.50;41.60;;;;;;5059899;28;20017;-70
2021/04/27 12:26:54;;;;;;;2.83;1.30;;;13.60;40.80;;;;;;5041768;28;19905;-70
2021/04/27 12:29:34;;;;;;;2.88;1.13;;;13.70;40.60;;;;;;5058474;28;20028;-71
2021/04/27 12:32:06;;;;;;;5.25;1.35;;;13.80;41.00;;;;;;5057621;28;20029;-71
2021/04/27 12:34:36;;;;;;;5.25;2.17;;;13.90;40.50;;;;;;5058561;28;20025;-71
2021/04/27 12:37:04;;;;;;;2.47;0.98;;;14.00;40.40;;;;;;5058521;28;20104;-71
2021/04/27 12:39:37;;;;;;;2.80;1.00;;;14.00;39.70;;;;;;5058482;28;20028;-72
2021/04/27 12:42:20;;;;;;;4.43;1.33;;;14.10;40.00;;;;;;5058976;28;20449;-71
2021/04/27 12:44:58;;;;;;;3.45;1.20;;;14.30;40.40;;;;;;5059851;28;20031;-71
2021/04/27 12:47:34;;;;;;;2.38;1.02;;;14.50;40.60;;;;;;5059781;28;20029;-72
2021/04/27 12:50:18;;;;;;;3.65;1.20;;;14.80;39.50;;;;;;5041679;28;20472;-71
2021/04/27 12:52:51;;;;;;;3.67;1.08;;;15.00;38.70;;;;;;5059190;28;20499;-72
2021/04/27 12:55:24;;;;;;;4.15;1.48;;;15.30;38.70;;;;;;5059853;28;20036;-71
2021/04/27 12:57:53;;;;;;;6.88;1.85;;;15.70;38.80;;;;;;5059554;28;20025;-71
2021/04/27 13:00:22;;;;;;;4.50;1.40;;;16.20;38.80;;;;;;5059365;28;20078;-72
2021/04/27 13:02:51;;;;;;;14.32;1.50;;;16.80;37.20;;;;;;5040295;28;20048;-72
2021/04/27 13:05:27;;;;;;;3.58;1.13;;;17.60;35.30;;;;;;5058528;28;20406;-72
2021/04/27 13:08:09;;;;;;;2.20;1.15;;;18.30;35.20;;;;;;5057981;28;20058;-72
2021/04/27 13:10:45;;;;;;;3.22;1.38;;;19.00;34.40;;;;;;5058040;28;20021;-72
2021/04/27 13:13:20;;;;;;;5.25;1.45;;;19.60;34.20;;;;;;5057494;28;20352;-72